Time;durP1;ratioP1;P1;durP2;ratioP2;P2;SDS_P1;SDS_P2;PMS_P1;PMS_P2;Temp;Humidity;BMP_temperature;BMP_pressure;BME280_temperature;BME280_humidity;BME280_pressure;Samples;Min_cycle;Max_cycle;Signal;HPM_P1;HPM_P2
2022/06/20 00:00:37;;;;;;;17.38;7.35;;;;;;;22.49;58.84;92621.31;4788247;29;20582;-76
2022/06/20 00:03:05;;;;;;;11.82;7.03;;;;;;;22.46;59.75;92625.47;4804493;29;20429;-76
2022/06/20 00:05:34;;;;;;;13.32;7.25;;;;;;;22.42;59.79;92624.66;4804330;29;20077;-76
2022/06/20 00:08:00;;;;;;;10.48;6.80;;;;;;;22.39;60.23;92623.47;4804231;29;20125;-76
2022/06/20 00:10:30;;;;;;;15.70;7.63;;;;;;;22.38;59.81;92610.47;4788258;29;20165;-76
2022/06/20 00:12:58;;;;;;;12.73;7.28;;;;;;;22.35;59.89;92614.63;4788288;29;20043;-76
2022/06/20 00:15:30;;;;;;;15.55;8.05;;;;;;;22.35;59.92;92611.19;4804148;29;20379;-77
2022/06/20 00:17:57;;;;;;;15.18;7.22;;;;;;;22.31;59.98;92610.38;4804046;29;20070;-76
2022/06/20 00:20:23;;;;;;;13.98;7.28;;;;;;;22.29;60.49;92608.06;4787886;29;20085;-76
2022/06/20 00:22:49;;;;;;;14.95;7.03;;;;;;;22.24;61.00;92611.78;4773176;29;20513;-76
2022/06/20 00:25:16;;;;;;;12.65;7.00;;;;;;;22.25;60.92;92615.25;4804214;29;20113;-77
2022/06/20 00:27:43;;;;;;;14.52;6.88;;;;;;;22.23;60.43;92607.59;4788051;29;20061;-76
2022/06/20 00:30:11;;;;;;;15.82;7.35;;;;;;;22.21;60.58;92606.38;4788166;29;20060;-76
2022/06/20 00:32:36;;;;;;;12.70;7.28;;;;;;;22.19;61.04;92601.41;4787875;29;20046;-76
2022/06/20 00:35:02;;;;;;;15.35;7.47;;;;;;;22.17;60.81;92602.88;4787522;29;20585;-76
2022/06/20 00:37:28;;;;;;;14.13;7.28;;;;;;;22.15;61.04;92603.22;4772755;29;20121;-76
2022/06/20 00:39:54;;;;;;;21.10;7.07;;;;;;;22.12;60.93;92601.28;4803963;29;20046;-76
2022/06/20 00:42:19;;;;;;;14.98;7.53;;;;;;;22.11;61.09;92599.75;4787905;29;20077;-76
2022/06/20 00:44:50;;;;;;;15.40;7.75;;;;;;;22.08;61.24;92597.78;4787740;29;20077;-76
2022/06/20 00:47:20;;;;;;;16.20;7.70;;;;;;;22.07;61.02;92598.91;4803876;29;20100;-76
2022/06/20 00:50:18;;;;;;;13.43;6.97;;;;;;;22.05;60.97;92598.50;4803794;29;20070;-76
2022/06/20 00:52:53;;;;;;;13.43;7.05;;;;;;;22.03;61.24;92587.41;4774223;29;20101;-76
2022/06/20 00:55:24;;;;;;;14.73;7.55;;;;;;;22.00;60.89;92586.25;4803844;29;20406;-76
2022/06/20 00:57:56;;;;;;;11.90;7.32;;;;;;;21.97;61.15;92588.81;4772775;29;20130;-76
2022/06/20 01:00:26;;;;;;;12.90;6.80;;;;;;;21.94;61.87;92589.56;4780189;29;20058;-76
2022/06/20 01:02:58;;;;;;;12.05;7.07;;;;;;;21.87;62.02;92586.75;4822030;29;20167;-76
2022/06/20 01:05:33;;;;;;;15.25;7.47;;;;;;;21.81;62.48;92587.03;4821945;29;20415;-76
2022/06/20 01:08:11;;;;;;;15.07;7.45;;;;;;;21.75;62.52;92588.47;4820830;29;20039;-76
2022/06/20 01:11:03;;;;;;;17.42;7.25;;;;;;;21.70;62.58;92580.75;4821827;29;20072;-76
2022/06/20 01:13:30;;;;;;;16.25;6.82;;;;;;;21.68;62.53;92588.31;4805459;29;20528;-76
2022/06/20 01:16:07;;;;;;;12.90;6.80;;;;;;;21.64;62.95;92582.16;4821841;29;20046;-76
2022/06/20 01:18:34;;;;;;;13.80;6.93;;;;;;;21.62;62.73;92577.19;4821827;29;20561;-76
2022/06/20 01:21:02;;;;;;;12.65;7.10;;;;;;;21.59;63.03;92577.91;4805315;29;20137;-76
2022/06/20 01:23:49;;;;;;;11.07;6.80;;;;;;;21.57;63.67;92588.13;4805166;29;20050;-76
2022/06/20 01:26:35;;;;;;;13.90;7.00;;;;;;;21.56;63.21;92591.13;4821772;29;20525;-76
2022/06/20 01:29:05;;;;;;;16.15;6.90;;;;;;;21.53;63.35;92581.19;4821733;29;20046;-76
2022/06/20 01:31:35;;;;;;;14.25;6.57;;;;;;;21.51;63.21;92573.56;4824775;29;20038;-76
2022/06/20 01:34:01;;;;;;;10.55;6.57;;;;;;;21.49;63.56;92575.03;4808899;29;20053;-76
2022/06/20 01:39:17;;;;;;;14.70;6.20;;;;;;;21.47;63.63;92577.28;4825059;29;20497;-76
2022/06/20 01:44:35;;;;;;;19.70;7.20;;;;;;;21.47;64.02;92571.94;4808589;29;20042;-76
2022/06/20 01:47:00;;;;;;;14.68;7.13;;;;;;;21.45;63.73;92571.53;4808558;29;20076;-76
2022/06/20 01:49:31;;;;;;;20.40;6.85;;;;;;;21.40;64.29;92568.03;4808613;29;20069;-76
2022/06/20 01:52:08;;;;;;;14.40;6.93;;;;;;;21.39;64.47;92574.44;4807389;29;20557;-76
2022/06/20 01:54:40;;;;;;;13.68;7.03;;;;;;;21.40;64.11;92577.88;4789843;29;20409;-76
2022/06/20 01:57:10;;;;;;;;;;;;;;;21.38;64.19;92570.22;4807089;29;20286;-76
2022/06/20 01:59:58;;;;;;;11.10;6.55;;;;;;;21.38;64.14;92564.91;4804149;29;19948;-76
2022/06/20 02:02:25;;;;;;;13.18;7.13;;;;;;;21.37;64.06;92557.28;4788683;30;20061;-76
2022/06/20 02:04:52;;;;;;;15.15;7.18;;;;;;;21.34;64.20;92558.75;4772387;30;20067;-76
2022/06/20 02:07:18;;;;;;;15.18;6.90;;;;;;;21.33;64.09;92554.53;4788474;30;20113;-76
2022/06/20 02:09:44;;;;;;;12.85;7.13;;;;;;;21.33;63.73;92553.78;4772475;30;20484;-76
2022/06/20 02:12:11;;;;;;;17.00;7.70;;;;;;;21.32;63.33;92538.91;4772319;30;20035;-76
2022/06/20 02:14:46;;;;;;;13.88;7.43;;;;;;;21.33;62.91;92537.81;4788052;30;20118;-77
2022/06/20 02:17:20;;;;;;;18.77;8.80;;;;;;;21.32;62.35;92547.69;4788798;30;20336;-76
2022/06/20 02:19:51;;;;;;;18.23;8.68;;;;;;;21.29;62.62;92547.63;4788333;30;20035;-76
2022/06/20 02:22:20;;;;;;;18.33;8.32;;;;;;;21.24;63.29;92547.91;4788362;30;20054;-76
2022/06/20 02:24:52;;;;;;;13.55;7.90;;;;;;;21.16;63.93;92539.75;4786960;30;20116;-76
2022/06/20 02:27:32;;;;;;;16.30;7.45;;;;;;;21.11;64.30;92550.69;4788274;30;20402;-76
2022/06/20 02:30:01;;;;;;;21.98;7.80;;;;;;;20.99;65.21;92554.25;4788127;30;20130;-76
2022/06/20 02:32:33;;;;;;;15.48;7.78;;;;;;;20.89;65.18;92549.47;4788213;30;20258;-76
2022/06/20 02:34:59;;;;;;;15.63;7.38;;;;;;;20.82;65.11;92544.00;4786804;30;20042;-76
2022/06/20 02:37:26;;;;;;;13.27;7.60;;;;;;;20.74;65.12;92543.09;4787901;30;20031;-76
2022/06/20 02:39:55;;;;;;;15.85;7.30;;;;;;;20.67;65.29;92544.81;4771803;30;20549;-76
2022/06/20 02:42:33;;;;;;;15.82;7.38;;;;;;;20.59;65.84;92542.00;4788224;29;20046;-76
2022/06/20 02:45:01;;;;;;;14.15;7.28;;;;;;;20.56;65.91;92540.06;4787596;30;20083;-76
2022/06/20 02:47:28;;;;;;;18.65;7.32;;;;;;;20.51;65.82;92547.47;4787794;30;20404;-76
2022/06/20 02:49:57;;;;;;;15.07;7.05;;;;;;;20.49;65.89;92547.06;4756991;30;20044;-76
2022/06/20 02:52:32;;;;;;;16.33;7.65;;;;;;;20.45;66.17;92548.88;4787907;30;20043;-76
2022/06/20 02:55:00;;;;;;;16.48;7.53;;;;;;;20.43;66.28;92537.81;4787799;30;20103;-76
2022/06/20 02:57:40;;;;;;;13.20;7.40;;;;;;;20.37;66.83;92539.97;4786564;30;20479;-76
2022/06/20 03:00:13;;;;;;;13.77;7.40;;;;;;;20.19;68.02;92542.22;4787480;29;20593;-76
2022/06/20 03:02:42;;;;;;;14.45;7.13;;;;;;;20.24;67.13;92536.66;4787631;30;20514;-76
2022/06/20 03:05:08;;;;;;;17.50;7.45;;;;;;;20.24;66.69;92539.31;4787653;30;20070;-76
2022/06/20 03:07:37;;;;;;;15.30;7.78;;;;;;;20.24;67.17;92535.88;4771667;30;20074;-76
2022/06/20 03:10:17;;;;;;;14.02;7.28;;;;;;;20.24;67.28;92531.34;4786313;30;20478;-76
2022/06/20 03:12:44;;;;;;;12.95;7.75;;;;;;;20.25;67.02;92532.09;4786219;30;20039;-76
2022/06/20 03:15:10;;;;;;;29.60;8.93;;;;;;;20.24;66.81;92528.69;4787330;30;20039;-76
2022/06/20 03:17:38;;;;;;;17.02;8.32;;;;;;;20.26;66.47;92528.31;4771433;30;20553;-76
2022/06/20 03:20:11;;;;;;;15.00;8.95;;;;;;;20.28;66.59;92528.75;4788002;30;20043;-76
2022/06/20 03:22:42;;;;;;;20.23;8.40;;;;;;;20.27;66.23;92529.88;4786605;30;20035;-76
2022/06/20 03:25:13;;;;;;;18.92;8.82;;;;;;;20.30;66.10;92526.53;4771223;30;20059;-76
2022/06/20 03:27:39;;;;;;;11.60;7.82;;;;;;;20.29;66.29;92525.75;4771100;30;20071;-76
2022/06/20 03:30:19;;;;;;;13.85;7.55;;;;;;;20.30;66.96;92534.50;4786142;30;20082;-76
2022/06/20 03:32:45;;;;;;;16.13;7.95;;;;;;;20.30;67.25;92527.28;4787087;30;20039;-76
2022/06/20 03:35:11;;;;;;;16.58;7.93;;;;;;;20.30;67.28;92529.19;4787093;30;20517;-76
2022/06/20 03:37:37;;;;;;;13.40;8.18;;;;;;;20.31;67.95;92533.38;4771398;30;20058;-76
2022/06/20 03:40:03;;;;;;;17.88;8.20;;;;;;;20.30;67.91;92529.19;4787081;30;20173;-76
2022/06/20 03:42:29;;;;;;;15.07;7.97;;;;;;;20.26;68.04;92528.31;4786979;30;20050;-76
2022/06/20 03:44:57;;;;;;;12.77;7.40;;;;;;;20.23;68.81;92535.09;4770803;30;20165;-76
2022/06/20 03:47:27;;;;;;;18.27;7.65;;;;;;;20.24;68.24;92533.22;4786852;30;20046;-76
2022/06/20 03:49:58;;;;;;;15.00;7.03;;;;;;;20.21;68.14;92532.00;4770668;30;20043;-76
2022/06/20 03:52:29;;;;;;;15.00;7.82;;;;;;;20.22;68.31;92532.78;4769886;30;20525;-76
2022/06/20 03:54:57;;;;;;;13.85;7.35;;;;;;;20.19;68.44;92534.25;4787027;30;20044;-76
2022/06/20 03:57:35;;;;;;;16.25;7.55;;;;;;;20.18;68.46;92538.78;4770467;30;20031;-76
2022/06/20 04:00:13;;;;;;;16.60;8.32;;;;;;;20.16;68.92;92530.38;4786310;29;20418;-76
2022/06/20 04:02:48;;;;;;;18.45;8.23;;;;;;;20.17;69.05;92534.59;4786821;30;20070;-76
2022/06/20 04:05:40;;;;;;;14.10;8.20;;;;;;;20.17;68.86;92539.13;4785186;30;20047;-76
2022/06/20 04:08:09;;;;;;;;;;;;;;;20.12;70.00;92537.50;4786673;30;20066;-76
2022/06/20 04:10:58;;;;;;;13.85;8.63;;;;;;;20.13;69.36;92531.09;4770341;30;19913;-76
2022/06/20 04:13:33;;;;;;;14.00;8.70;;;;;;;20.13;69.06;92538.28;4786267;30;20538;-76
2022/06/20 04:16:09;;;;;;;20.05;8.43;;;;;;;20.10;69.17;92537.06;4786212;30;20035;-76
2022/06/20 04:18:38;;;;;;;16.10;8.52;;;;;;;20.11;69.20;92535.97;4786306;30;20053;-76
2022/06/20 04:21:15;;;;;;;14.55;8.30;;;;;;;20.10;69.22;92544.28;4786438;30;20518;-76
2022/06/20 04:23:49;;;;;;;18.80;8.98;;;;;;;20.10;69.80;92537.06;4784836;30;20419;-76
2022/06/20 04:26:26;;;;;;;11.77;8.23;;;;;;;20.09;69.68;92538.19;4785160;30;20043;-76
2022/06/20 04:29:00;;;;;;;15.30;8.57;;;;;;;20.11;69.78;92537.88;4785977;30;20046;-76
2022/06/20 04:32:23;;;;;;;16.20;8.07;;;;;;;20.14;69.87;92539.81;4785104;30;20043;-76
2022/06/20 04:35:05;;;;;;;17.20;9.57;;;;;;;20.17;70.67;92536.47;4712804;30;20417;-76
2022/06/20 04:37:47;;;;;;;17.67;8.77;;;;;;;20.18;70.51;92533.47;4712920;30;20474;-76
2022/06/20 04:40:19;;;;;;;14.40;9.00;;;;;;;20.22;70.50;92532.78;4763555;30;20051;-76
2022/06/20 04:43:03;;;;;;;19.30;8.60;;;;;;;20.26;70.75;92538.94;4784894;30;20126;-76
2022/06/20 04:45:57;;;;;;;21.13;9.30;;;;;;;20.28;70.73;92534.06;4769638;30;20114;-76
2022/06/20 04:48:24;;;;;;;18.52;9.05;;;;;;;20.30;70.93;92535.25;4785959;30;20043;-76
2022/06/20 04:50:52;;;;;;;27.92;8.85;;;;;;;20.33;70.88;92536.44;4786021;30;20548;-76
2022/06/20 04:53:27;;;;;;;20.45;9.10;;;;;;;20.36;70.55;92533.88;4786015;30;20043;-76
2022/06/20 04:55:55;;;;;;;15.65;8.80;;;;;;;20.39;70.13;92533.19;4785721;30;20049;-76
2022/06/20 04:58:30;;;;;;;18.35;8.80;;;;;;;20.44;69.77;92529.50;4785906;30;20133;-76
2022/06/20 05:00:57;;;;;;;16.00;9.00;;;;;;;20.50;69.56;92530.00;4785706;29;20406;-76
2022/06/20 05:03:42;;;;;;;17.67;8.48;;;;;;;20.56;69.68;92524.09;4785902;30;20035;-76
2022/06/20 05:06:17;;;;;;;18.00;10.15;;;;;;;20.64;69.67;92526.91;4788446;30;20054;-76
2022/06/20 05:08:48;;;;;;;19.95;10.02;;;;;;;20.71;69.27;92521.72;4789374;30;20043;-76
2022/06/20 05:11:28;;;;;;;20.67;9.45;;;;;;;20.76;68.88;92524.13;4789403;30;20121;-76
2022/06/20 05:14:03;;;;;;;16.05;9.32;;;;;;;20.84;68.54;92519.72;4788365;30;20043;-76
2022/06/20 05:16:37;;;;;;;16.30;9.82;;;;;;;20.89;68.38;92517.56;4789387;30;20502;-76
2022/06/20 05:19:08;;;;;;;22.30;9.32;;;;;;;20.98;68.29;92526.13;4788221;30;20402;-76
2022/06/20 05:21:42;;;;;;;17.45;9.93;;;;;;;21.09;68.02;92525.56;4788153;30;20130;-76
2022/06/20 05:24:33;;;;;;;17.25;9.23;;;;;;;21.19;67.61;92528.44;4789317;30;20035;-76
2022/06/20 05:27:06;;;;;;;22.10;9.77;;;;;;;21.32;67.27;92522.94;4764713;30;20046;-76
2022/06/20 05:29:35;;;;;;;17.33;9.88;;;;;;;21.41;66.69;92532.28;4787691;30;20039;-76
2022/06/20 05:32:05;;;;;;;16.42;9.45;;;;;;;21.53;65.80;92530.59;4789153;30;20035;-76
2022/06/20 05:34:44;;;;;;;21.77;9.23;;;;;;;21.61;65.63;92519.69;4772752;30;20498;-76
2022/06/20 05:37:28;;;;;;;14.80;8.98;;;;;;;21.78;65.47;92525.72;4788984;30;20566;-76
2022/06/20 05:39:58;;;;;;;16.50;9.02;;;;;;;21.91;64.87;92524.41;4789284;30;20042;-76
2022/06/20 05:42:24;;;;;;;17.27;9.25;;;;;;;22.06;64.65;92525.41;4787691;30;20126;-76
2022/06/20 05:44:49;;;;;;;14.75;8.43;;;;;;;22.28;63.42;92529.19;4787563;30;20127;-76
2022/06/20 05:47:19;;;;;;;23.83;9.35;;;;;;;22.70;61.10;92530.16;4788855;30;20039;-76
2022/06/20 05:49:51;;;;;;;16.70;8.52;;;;;;;23.14;60.01;92532.28;4788731;30;20039;-76
2022/06/20 05:52:24;;;;;;;15.55;8.25;;;;;;;23.60;59.15;92529.38;4788678;30;20386;-76
2022/06/20 05:55:00;;;;;;;16.40;9.82;;;;;;;23.99;57.50;92523.66;4788504;30;20495;-77
2022/06/20 05:57:27;;;;;;;28.73;10.65;;;;;;;24.42;58.39;92532.03;4787480;30;20458;-77
2022/06/20 06:00:01;;;;;;;85.45;16.40;;;;;;;24.80;57.63;92528.09;4775408;30;20079;-77
2022/06/20 06:02:39;;;;;;;28.35;12.15;;;;;;;24.70;58.34;92528.78;4790661;30;20054;-77
2022/06/20 06:05:16;;;;;;;20.98;10.88;;;;;;;24.39;59.37;92525.50;4790592;30;20027;-77
2022/06/20 06:07:49;;;;;;;17.67;11.23;;;;;;;24.33;59.03;92521.63;4789916;30;20043;-78
2022/06/20 06:10:42;;;;;;;20.55;11.13;;;;;;;24.56;58.96;92521.44;4790309;30;20043;-77
2022/06/20 06:13:26;;;;;;;18.92;10.90;;;;;;;25.04;55.34;92525.91;4773964;30;20130;-77
2022/06/20 06:19:01;;;;;;;21.08;11.52;;;;;;;24.72;55.18;92538.00;4773053;30;20051;-77
2022/06/20 06:21:27;;;;;;;16.20;10.18;;;;;;;25.19;50.08;92522.19;4788146;30;20039;-77
2022/06/20 06:23:55;;;;;;;21.45;10.65;;;;;;;25.12;51.27;92532.84;4789310;30;20100;-77
2022/06/20 06:26:20;;;;;;;16.85;10.82;;;;;;;24.87;51.39;92538.06;4787991;30;20054;-77
2022/06/20 06:28:49;;;;;;;168.02;24.77;;;;;;;24.76;55.67;92539.91;4789107;30;20039;-77
2022/06/20 06:31:24;;;;;;;50.10;13.68;;;;;;;24.45;56.78;92539.28;4789026;30;20121;-77
2022/06/20 06:33:57;;;;;;;51.08;13.57;;;;;;;24.13;57.46;92534.47;4789776;30;20205;-75
2022/06/20 06:36:38;;;;;;;49.03;14.30;;;;;;;24.25;56.82;92539.56;4774221;30;20043;-76
2022/06/20 06:39:15;;;;;;;27.77;12.02;;;;;;;24.14;59.34;92536.03;4772748;30;20050;-76
2022/06/20 06:41:45;;;;;;;22.85;12.30;;;;;;;23.98;61.19;92530.13;4772472;30;20050;-77
2022/06/20 06:44:31;;;;;;;25.17;12.73;;;;;;;24.17;58.47;92540.63;4772515;30;20050;-77
2022/06/20 06:46:57;;;;;;;21.42;13.35;;;;;;;24.13;60.66;92539.81;4788328;30;20128;-77
2022/06/20 06:49:26;;;;;;;24.73;12.65;;;;;;;24.33;59.12;92542.28;4788469;30;20088;-77
2022/06/20 06:52:02;;;;;;;19.35;12.10;;;;;;;24.52;57.54;92550.09;4772371;30;20043;-76
2022/06/20 06:54:43;;;;;;;23.98;11.23;;;;;;;24.66;58.22;92546.75;4772209;30;20414;-76
2022/06/20 06:57:10;;;;;;;20.95;11.60;;;;;;;24.80;57.49;92548.75;4788557;30;20046;-77
2022/06/20 07:00:03;;;;;;;26.42;11.68;;;;;;;24.47;60.16;92545.03;4772735;29;20031;-77
2022/06/20 07:02:52;;;;;;;59.53;16.15;;;;;;;23.97;62.04;92545.41;4788281;30;20444;-77
2022/06/20 07:05:29;;;;;;;26.00;13.73;;;;;;;23.72;62.83;92550.50;4788316;30;20395;-76
2022/06/20 07:08:05;;;;;;;32.10;13.45;;;;;;;23.78;63.30;92548.31;4787129;30;20047;-77
2022/06/20 07:10:43;;;;;;;26.90;14.07;;;;;;;23.71;63.06;92554.31;4788175;30;20054;-76
2022/06/20 07:13:30;;;;;;;21.75;14.18;;;;;;;23.84;62.95;92558.25;4787902;30;20035;-76
2022/06/20 07:15:59;;;;;;;22.90;13.95;;;;;;;24.08;62.61;92553.53;4787597;30;20460;-77
2022/06/20 07:18:44;;;;;;;27.90;14.55;;;;;;;24.01;62.55;92551.56;4787809;30;20031;-77
2022/06/20 07:21:17;;;;;;;24.75;13.50;;;;;;;23.83;63.78;92559.41;4787903;30;20114;-77
2022/06/20 07:23:45;;;;;;;28.27;14.80;;;;;;;23.99;63.51;92561.84;4787480;30;20711;-77
2022/06/20 07:26:13;;;;;;;27.90;13.57;;;;;;;24.05;63.97;92551.59;4787457;30;20031;-76
2022/06/20 07:28:45;;;;;;;22.23;13.90;;;;;;;24.36;62.98;92557.56;4786773;29;20508;-76
2022/06/20 07:31:14;;;;;;;26.98;14.88;;;;;;;24.06;62.80;92548.53;4786213;30;20050;-77
2022/06/20 07:34:20;;;;;;;24.15;13.13;;;;;;;24.23;62.09;92555.19;4771193;30;20067;-77
2022/06/20 07:36:56;;;;;;;21.63;12.93;;;;;;;24.22;61.43;92548.28;4785860;30;20066;-77
2022/06/20 07:39:30;;;;;;;23.88;14.15;;;;;;;24.07;62.42;92551.97;4770982;30;20040;-76
2022/06/20 07:42:04;;;;;;;36.72;12.55;;;;;;;23.87;61.32;92554.88;4770717;30;20051;-76
2022/06/20 07:44:49;;;;;;;69.30;16.08;;;;;;;23.75;61.71;92546.34;4786799;30;20123;-76
2022/06/20 07:47:20;;;;;;;26.65;13.25;;;;;;;23.59;62.40;92559.91;4786801;30;20119;-77
2022/06/20 07:49:54;;;;;;;21.70;14.37;;;;;;;23.75;62.41;92555.13;4787139;30;20047;-77
2022/06/20 07:52:36;;;;;;;27.58;15.02;;;;;;;23.62;62.52;92554.59;4786561;30;20529;-76
2022/06/20 07:55:05;;;;;;;;;;;;;;;23.94;61.58;92537.38;4786938;30;20453;-76
2022/06/20 07:57:37;;;;;;;24.30;14.85;;;;;;;24.12;59.90;92545.56;4786604;30;19925;-76
2022/06/20 08:00:17;;;;;;;22.40;14.00;;;;;;;24.30;59.64;92535.75;4786727;29;20097;-77
2022/06/20 08:02:51;;;;;;;22.50;13.75;;;;;;;24.21;58.35;92540.66;4786613;30;20046;-76
2022/06/20 08:05:26;;;;;;;17.58;10.73;;;;;;;24.55;57.84;92533.28;4786462;30;20094;-77
2022/06/20 08:08:17;;;;;;;21.58;13.25;;;;;;;24.66;55.53;92530.69;4785626;30;20043;-77
2022/06/20 08:11:39;;;;;;;24.17;12.02;;;;;;;24.78;54.83;92529.59;4785609;30;20065;-76
2022/06/20 08:14:03;;;;;;;18.80;10.73;;;;;;;25.03;54.68;92535.09;4786178;30;20114;-76
2022/06/20 08:16:33;;;;;;;31.90;11.77;;;;;;;25.08;52.19;92535.50;4785102;30;20125;-76
2022/06/20 08:18:59;;;;;;;36.55;11.70;;;;;;;24.90;52.23;92530.06;4786531;30;20130;-77
2022/06/20 08:21:29;;;;;;;19.70;10.20;;;;;;;25.19;54.53;92532.13;4770548;30;20050;-76
2022/06/20 08:24:09;;;;;;;30.63;11.48;;;;;;;25.23;54.42;92527.56;4785413;30;20035;-76
2022/06/20 08:26:45;;;;;;;21.75;12.18;;;;;;;25.27;52.26;92531.78;4770489;30;20415;-77
2022/06/20 08:29:16;;;;;;;28.58;12.07;;;;;;;25.44;53.72;92534.91;4770535;30;20471;-77
2022/06/20 08:31:50;;;;;;;21.27;12.98;;;;;;;25.46;53.23;92533.38;4786987;30;20041;-77
2022/06/20 08:34:28;;;;;;;19.10;11.80;;;;;;;25.53;54.28;92536.09;4786534;30;20409;-76
2022/06/20 08:37:12;;;;;;;20.27;12.15;;;;;;;25.50;53.83;92530.72;4770086;30;20039;-77
2022/06/20 08:39:55;;;;;;;29.70;12.68;;;;;;;25.40;53.45;92532.22;4786339;30;20135;-76
2022/06/20 08:42:58;;;;;;;26.25;11.45;;;;;;;25.58;53.73;92529.59;4785000;30;20039;-77
2022/06/20 08:45:54;;;;;;;22.92;10.50;;;;;;;26.03;52.12;92535.44;4786333;30;20108;-77
2022/06/20 08:48:23;;;;;;;17.77;11.25;;;;;;;25.85;50.90;92524.69;4755333;30;20457;-76
2022/06/20 08:51:04;;;;;;;40.55;11.68;;;;;;;25.73;51.13;92525.78;4786027;30;20100;-76
2022/06/20 08:54:08;;;;;;;17.05;10.90;;;;;;;25.51;50.46;92518.84;4784827;30;20066;-76
2022/06/20 08:57:03;;;;;;;15.63;9.90;;;;;;;25.62;49.33;92522.31;4757979;30;20545;-76
2022/06/20 08:59:43;;;;;;;18.63;10.18;;;;;;;25.70;52.40;92515.06;4784895;29;20063;-77
2022/06/20 09:02:42;;;;;;;18.25;9.73;;;;;;;25.58;51.85;92520.78;4786028;30;20043;-77
2022/06/20 09:05:11;;;;;;;23.30;9.88;;;;;;;25.65;51.07;92520.81;4785161;30;20131;-76
2022/06/20 09:07:42;;;;;;;19.58;10.27;;;;;;;25.49;50.24;92518.47;4785899;30;20045;-76
2022/06/20 09:10:20;;;;;;;27.90;10.30;;;;;;;25.46;52.02;92511.94;4785922;30;20035;-77
2022/06/20 09:12:58;;;;;;;23.23;10.65;;;;;;;25.60;51.05;92521.16;4786097;30;20047;-77
2022/06/20 09:15:34;;;;;;;24.02;10.18;;;;;;;25.82;51.28;92516.63;4784831;30;20495;-77
2022/06/20 09:18:22;;;;;;;23.90;9.80;;;;;;;26.09;50.08;92511.69;4770063;30;20472;-76
2022/06/20 09:20:58;;;;;;;32.42;10.57;;;;;;;26.12;49.88;92513.59;4785752;30;20167;-77
2022/06/20 09:23:57;;;;;;;15.63;9.25;;;;;;;26.31;50.06;92513.22;4786267;30;20062;-77
2022/06/20 09:26:52;;;;;;;22.95;10.27;;;;;;;26.23;48.22;92514.41;4786135;30;20371;-77
2022/06/20 09:29:29;;;;;;;17.27;9.70;;;;;;;26.11;49.46;92510.16;4784650;30;20083;-76
2022/06/20 09:32:30;;;;;;;23.67;9.98;;;;;;;25.81;48.60;92515.84;4769454;30;20043;-77
2022/06/20 09:35:22;;;;;;;19.27;9.75;;;;;;;25.79;49.93;92510.09;4786237;30;20092;-77
2022/06/20 09:37:54;;;;;;;18.30;9.60;;;;;;;25.84;48.60;92507.03;4785775;30;20042;-76
2022/06/20 09:41:00;;;;;;;21.23;10.65;;;;;;;25.89;49.29;92509.38;4784530;30;20580;-76
2022/06/20 09:43:50;;;;;;;23.27;11.00;;;;;;;25.88;48.91;92510.53;4759963;30;20054;-76
2022/06/20 09:46:39;;;;;;;21.55;10.85;;;;;;;26.08;48.39;92504.81;4785772;30;20104;-77
2022/06/20 09:49:29;;;;;;;14.55;9.05;;;;;;;26.40;49.37;92509.41;4766550;30;20043;-77
2022/06/20 09:51:54;;;;;;;21.80;9.77;;;;;;;26.79;47.98;92507.44;4788017;29;20139;-77
2022/06/20 09:54:37;;;;;;;17.02;10.30;;;;;;;26.69;46.73;92500.19;4787891;30;20122;-76
2022/06/20 09:57:17;;;;;;;19.45;9.30;;;;;;;26.72;45.85;92504.00;4789513;30;20043;-77
2022/06/20 09:59:52;;;;;;;18.02;9.25;;;;;;;26.66;46.55;92505.53;4789391;29;20063;-77
2022/06/20 10:02:26;;;;;;;23.65;9.52;;;;;;;26.83;46.60;92503.97;4789812;30;20035;-76
2022/06/20 10:05:07;;;;;;;22.98;8.98;;;;;;;26.69;46.55;92504.78;4773419;30;20051;-77
2022/06/20 10:08:03;;;;;;;14.73;8.52;;;;;;;26.43;45.50;92497.88;4788892;30;20074;-76
2022/06/20 10:10:38;;;;;;;19.00;8.90;;;;;;;26.54;44.94;92493.25;4788022;30;20043;-77
2022/06/20 10:13:04;;;;;;;16.15;7.53;;;;;;;26.88;46.27;92498.22;4773411;30;20750;-76
2022/06/20 10:15:41;;;;;;;21.38;8.77;;;;;;;26.65;45.50;92494.03;4789016;30;20134;-77
2022/06/20 10:18:49;;;;;;;21.67;9.15;;;;;;;26.54;46.08;92491.34;4789323;30;20503;-77
2022/06/20 10:21:24;;;;;;;17.50;9.10;;;;;;;26.43;46.54;92487.91;4789385;30;20047;-77
2022/06/20 10:24:08;;;;;;;18.48;8.30;;;;;;;26.83;46.28;92491.31;4788922;30;20399;-76
2022/06/20 10:27:09;;;;;;;18.50;8.45;;;;;;;27.10;46.63;92488.16;4788836;30;20035;-77
2022/06/20 10:29:44;;;;;;;17.38;8.82;;;;;;;26.88;45.65;92487.47;4787456;30;20498;-77
2022/06/20 10:32:09;;;;;;;17.65;8.95;;;;;;;26.75;46.33;92492.47;4787392;30;20047;-77
2022/06/20 10:35:00;;;;;;;16.30;8.75;;;;;;;26.99;46.46;92477.44;4772365;30;20035;-77
2022/06/20 10:37:33;;;;;;;17.70;9.75;;;;;;;27.20;45.34;92480.09;4788744;30;20047;-76
2022/06/20 10:40:14;;;;;;;14.13;8.90;;;;;;;27.53;45.97;92475.31;4788957;30;20058;-77
2022/06/20 10:42:59;;;;;;;19.17;9.07;;;;;;;27.33;44.63;92477.72;4787695;30;20122;-77
2022/06/20 10:45:54;;;;;;;13.57;8.80;;;;;;;27.38;45.51;92479.22;4788564;30;20079;-77
2022/06/20 10:48:30;;;;;;;20.05;10.18;;;;;;;27.61;43.10;92468.00;4783205;30;20059;-77
2022/06/20 10:51:04;;;;;;;17.42;9.55;;;;;;;27.55;44.62;92467.63;4788614;30;20042;-77
2022/06/20 10:53:46;;;;;;;16.13;9.43;;;;;;;27.48;44.45;92473.03;4788664;30;20099;-77
2022/06/20 10:56:18;;;;;;;19.33;9.85;;;;;;;27.46;45.38;92469.97;4786803;30;20039;-76
2022/06/20 10:59:16;;;;;;;17.20;9.73;;;;;;;27.14;45.63;92475.50;4788348;30;20047;-77
2022/06/20 11:02:06;;;;;;;15.57;9.75;;;;;;;27.43;44.28;92470.78;4787306;29;20048;-76
2022/06/20 11:04:51;;;;;;;17.73;9.23;;;;;;;27.28;45.67;92467.38;4771052;30;20074;-76
2022/06/20 11:07:27;;;;;;;21.42;10.00;;;;;;;27.08;44.71;92475.13;4787522;30;20047;-76
2022/06/20 11:10:29;;;;;;;17.92;8.70;;;;;;;27.27;45.97;92462.38;4787806;30;20050;-77
2022/06/20 11:13:32;;;;;;;18.48;9.48;;;;;;;27.16;45.77;92462.44;4787778;30;20058;-76
2022/06/20 11:16:10;;;;;;;14.20;9.55;;;;;;;27.29;44.80;92454.72;4787385;30;20456;-77
2022/06/20 11:18:54;;;;;;;16.35;9.50;;;;;;;27.58;45.54;92458.78;4786706;30;20045;-77
2022/06/20 11:21:22;;;;;;;15.57;9.48;;;;;;;27.45;43.59;92462.31;4786308;30;20096;-76
2022/06/20 11:24:27;;;;;;;16.33;8.57;;;;;;;27.52;44.71;92462.28;4786333;30;20162;-76
2022/06/20 11:27:09;;;;;;;16.73;8.55;;;;;;;27.48;44.66;92466.91;4787786;30;20046;-76
2022/06/20 11:29:44;;;;;;;16.02;8.32;;;;;;;27.57;45.25;92462.63;4771250;30;20311;-77
2022/06/20 11:32:36;;;;;;;16.73;8.68;;;;;;;27.74;45.70;92457.50;4787479;30;20043;-76
2022/06/20 11:35:16;;;;;;;13.27;8.05;;;;;;;27.71;43.19;92461.00;4757212;30;20047;-77
2022/06/20 11:37:54;;;;;;;14.75;8.70;;;;;;;27.83;43.22;92460.53;4786638;30;20073;-77
2022/06/20 11:40:33;;;;;;;15.43;8.23;;;;;;;27.49;43.00;92457.66;4770968;30;20035;-77
2022/06/20 11:43:27;;;;;;;19.20;8.38;;;;;;;27.79;43.33;92455.19;4787162;30;20134;-77
2022/06/20 11:46:22;;;;;;;17.02;8.80;;;;;;;27.81;43.19;92465.56;4742768;30;20043;-77
2022/06/20 11:49:24;;;;;;;17.92;8.30;;;;;;;27.84;41.77;92454.03;4787078;30;20046;-77
2022/06/20 11:52:02;;;;;;;16.98;8.60;;;;;;;27.92;43.26;92442.06;4785834;30;20046;-77
2022/06/20 11:54:48;;;;;;;14.38;7.15;;;;;;;27.97;43.18;92444.31;4786978;30;20051;-76
2022/06/20 11:57:17;;;;;;;11.73;7.70;;;;;;;27.98;42.59;92451.22;4756030;30;20043;-77
2022/06/20 11:59:58;;;;;;;20.77;8.82;;;;;;;27.85;40.75;92452.84;4786883;29;20062;-77
2022/06/20 12:02:37;;;;;;;16.42;9.38;;;;;;;27.91;41.06;92440.53;4786704;30;20043;-77
2022/06/20 12:05:17;;;;;;;19.05;7.32;;;;;;;27.95;41.41;92443.19;4785967;30;20047;-77
2022/06/20 12:07:54;;;;;;;20.77;8.10;;;;;;;28.17;42.44;92438.41;4785544;30;20577;-77
2022/06/20 12:10:39;;;;;;;19.27;8.40;;;;;;;28.39;41.28;92447.03;4786979;30;20082;-77
2022/06/20 12:13:29;;;;;;;20.02;8.27;;;;;;;28.28;39.33;92441.78;4786505;29;20074;-77
2022/06/20 12:16:06;;;;;;;21.42;8.82;;;;;;;28.45;39.57;92438.13;4785675;30;20070;-77